Time;durP1;ratioP1;P1;durP2;ratioP2;P2;SDS_P1;SDS_P2;PMS_P1;PMS_P2;Temp;Humidity;BMP_temperature;BMP_pressure;BME280_temperature;BME280_humidity;BME280_pressure;Samples;Min_cycle;Max_cycle;Signal;HPM_P1;HPM_P2
2021/10/31 00:00:11;;;;;;;15.77;13.13;;;11.70;99.90;;;;;;5046560;28;20477;-69
2021/10/31 00:02:41;;;;;;;17.87;13.67;;;11.70;99.90;;;;;;5036420;28;20744;-70
2021/10/31 00:05:11;;;;;;;14.77;13.13;;;11.70;99.90;;;;;;5041310;28;20233;-69
2021/10/31 00:07:39;;;;;;;15.67;13.17;;;11.70;99.90;;;;;;5034057;28;20241;-70
2021/10/31 00:10:09;;;;;;;16.00;12.60;;;11.70;99.90;;;;;;5044548;28;20253;-68
2021/10/31 00:12:37;;;;;;;16.27;12.90;;;11.70;99.90;;;;;;5038015;28;20269;-69
2021/10/31 00:15:06;;;;;;;15.17;13.13;;;11.70;99.90;;;;;;5037562;28;20235;-70
2021/10/31 00:17:34;;;;;;;16.70;13.73;;;11.70;99.90;;;;;;5042759;28;20241;-69
2021/10/31 00:20:05;;;;;;;16.13;13.27;;;11.70;99.90;;;;;;5039306;28;20245;-69
2021/10/31 00:22:33;;;;;;;16.60;13.67;;;11.70;99.90;;;;;;5034283;28;20233;-69
2021/10/31 00:25:01;;;;;;;15.77;13.87;;;11.70;99.90;;;;;;5045560;28;20243;-69
2021/10/31 00:27:29;;;;;;;17.23;14.43;;;11.70;99.90;;;;;;5035702;28;20771;-69
2021/10/31 00:29:57;;;;;;;16.83;13.97;;;11.70;99.90;;;;;;5045319;28;20320;-70
2021/10/31 00:32:26;;;;;;;17.77;14.93;;;11.70;99.90;;;;;;5038529;28;20230;-69
2021/10/31 00:34:54;;;;;;;17.33;15.10;;;11.70;99.90;;;;;;5046763;28;20232;-69
2021/10/31 00:37:23;;;;;;;18.50;15.87;;;11.70;99.90;;;;;;5035730;28;20792;-70
2021/10/31 00:39:51;;;;;;;18.87;15.40;;;11.70;99.90;;;;;;5041401;28;20240;-69
2021/10/31 00:42:20;;;;;;;19.30;16.07;;;11.60;99.90;;;;;;5039731;28;20323;-69
2021/10/31 00:44:48;;;;;;;18.07;15.57;;;11.70;99.90;;;;;;5033919;28;20316;-68
2021/10/31 00:47:16;;;;;;;18.70;15.07;;;11.60;99.90;;;;;;5044359;28;20705;-68
2021/10/31 00:49:45;;;;;;;17.43;14.80;;;11.60;99.90;;;;;;5044884;28;20260;-69
2021/10/31 00:52:13;;;;;;;18.83;14.47;;;11.60;99.90;;;;;;5039964;28;20276;-68
2021/10/31 00:54:43;;;;;;;17.83;15.30;;;11.70;99.90;;;;;;5040676;28;20232;-69
2021/10/31 00:57:12;;;;;;;17.60;15.23;;;11.60;99.90;;;;;;5042931;28;20263;-69
2021/10/31 00:59:40;;;;;;;17.77;14.87;;;11.60;99.90;;;;;;5033586;28;20336;-69
2021/10/31 01:02:11;;;;;;;19.43;15.17;;;11.60;99.90;;;;;;5045046;28;20229;-69
2021/10/31 01:04:43;;;;;;;18.70;15.17;;;11.50;99.90;;;;;;5031813;28;20287;-68
2021/10/31 01:07:19;;;;;;;16.97;15.07;;;11.50;99.90;;;;;;5039924;28;20237;-69
2021/10/31 01:10:01;;;;;;;18.10;14.90;;;11.50;99.90;;;;;;5039582;28;20652;-69
2021/10/31 01:12:49;;;;;;;19.40;15.67;;;11.40;99.90;;;;;;5038386;28;20794;-70
2021/10/31 01:15:25;;;;;;;20.70;15.97;;;11.40;99.90;;;;;;5045588;28;20698;-69
2021/10/31 01:18:18;;;;;;;19.73;15.67;;;11.40;99.90;;;;;;5036543;28;20797;-68
2021/10/31 01:20:53;;;;;;;19.83;16.20;;;11.40;99.90;;;;;;5034809;28;20251;-69
2021/10/31 01:23:45;;;;;;;19.13;15.23;;;11.40;99.90;;;;;;5064605;28;20769;-68
2021/10/31 01:26:26;;;;;;;21.17;16.73;;;11.40;99.90;;;;;;5064282;28;20248;-69
2021/10/31 01:29:10;;;;;;;19.30;16.57;;;11.30;99.90;;;;;;5064517;28;20242;-69
2021/10/31 01:31:44;;;;;;;17.60;15.70;;;11.30;99.90;;;;;;5058621;28;20232;-68
2021/10/31 01:34:20;;;;;;;22.60;16.97;;;11.30;99.90;;;;;;5066183;28;20262;-69
2021/10/31 01:36:58;;;;;;;22.50;17.97;;;11.40;99.90;;;;;;5068759;28;20631;-69
2021/10/31 01:39:35;;;;;;;19.93;17.47;;;11.40;99.90;;;;;;5064080;28;20298;-69
2021/10/31 01:42:17;;;;;;;20.63;17.73;;;11.30;99.90;;;;;;5068996;28;20232;-69
2021/10/31 01:44:52;;;;;;;20.73;18.10;;;11.40;99.90;;;;;;5061643;28;20241;-70
2021/10/31 01:47:35;;;;;;;21.93;18.53;;;11.40;99.90;;;;;;5066807;28;20323;-69
2021/10/31 01:50:11;;;;;;;21.43;19.13;;;11.30;99.90;;;;;;5065581;28;20279;-69
2021/10/31 01:52:45;;;;;;;23.67;19.07;;;11.30;99.90;;;;;;5059930;28;20248;-70
2021/10/31 01:55:19;;;;;;;22.67;19.23;;;11.30;99.90;;;;;;5061026;28;20267;-69
2021/10/31 01:57:53;;;;;;;23.03;19.47;;;11.30;99.90;;;;;;5055510;28;20357;-69
2021/10/31 02:00:21;;;;;;;21.40;19.10;;;11.30;99.90;;;;;;5068757;28;20245;-69
2021/10/31 02:02:50;;;;;;;20.73;18.40;;;11.30;99.90;;;;;;5061723;28;20236;-69
2021/10/31 02:05:22;;;;;;;21.93;19.47;;;11.30;99.90;;;;;;5058233;28;20241;-69
2021/10/31 02:07:53;;;;;;;20.13;18.00;;;11.30;99.90;;;;;;5062503;28;20336;-69
2021/10/31 02:10:22;;;;;;;23.37;19.37;;;11.30;99.90;;;;;;5064325;28;20651;-69
2021/10/31 02:12:53;;;;;;;25.90;19.87;;;11.30;99.90;;;;;;5061371;28;20233;-69
2021/10/31 02:15:23;;;;;;;21.90;19.27;;;11.30;99.90;;;;;;5068545;28;20236;-70
2021/10/31 02:17:55;;;;;;;23.87;19.47;;;11.30;99.90;;;;;;5066040;28;20243;-69
2021/10/31 02:20:25;;;;;;;24.73;20.10;;;11.40;99.90;;;;;;5068545;28;20244;-68
2021/10/31 02:22:56;;;;;;;26.13;20.47;;;11.50;99.90;;;;;;5068705;28;20316;-69
2021/10/31 02:25:25;;;;;;;23.57;19.83;;;11.50;99.90;;;;;;5068463;28;20587;-69
2021/10/31 02:27:53;;;;;;;25.17;21.53;;;11.50;99.90;;;;;;5068865;28;20236;-69
2021/10/31 02:30:22;;;;;;;24.77;22.07;;;11.50;99.90;;;;;;5067600;28;20260;-69
2021/10/31 02:32:52;;;;;;;26.07;22.43;;;11.50;99.90;;;;;;5068214;28;20237;-69
2021/10/31 02:35:21;;;;;;;23.83;21.17;;;11.50;99.90;;;;;;5068576;28;20237;-69
2021/10/31 02:37:49;;;;;;;29.97;22.70;;;11.60;99.90;;;;;;5068615;28;20232;-69
2021/10/31 02:40:24;;;;;;;26.83;23.83;;;11.60;99.90;;;;;;5067084;28;20869;-69
2021/10/31 02:42:53;;;;;;;24.53;21.93;;;11.60;99.90;;;;;;5067199;28;20272;-69
2021/10/31 02:45:21;;;;;;;26.00;22.70;;;11.70;99.90;;;;;;5067609;28;20237;-70
2021/10/31 02:47:53;;;;;;;26.10;22.03;;;11.70;99.90;;;;;;5068601;28;20228;-69
2021/10/31 02:50:25;;;;;;;25.60;22.53;;;11.60;99.90;;;;;;5068085;28;20359;-70
2021/10/31 02:53:09;;;;;;;30.07;25.73;;;11.60;99.90;;;;;;5068102;28;20588;-69
2021/10/31 02:55:46;;;;;;;25.50;22.73;;;11.60;99.90;;;;;;5067460;28;20239;-70
2021/10/31 02:58:20;;;;;;;31.40;26.07;;;11.60;99.90;;;;;;5067798;28;20595;-69
2021/10/31 03:00:55;;;;;;;29.67;26.20;;;11.60;99.90;;;;;;5067268;28;20235;-69
2021/10/31 03:03:24;;;;;;;32.70;27.60;;;11.60;99.90;;;;;;5067796;28;20297;-69
2021/10/31 03:05:53;;;;;;;31.67;26.87;;;11.60;99.90;;;;;;5068445;28;20239;-69
2021/10/31 03:08:21;;;;;;;29.17;26.10;;;11.60;99.90;;;;;;5067957;28;20655;-69
2021/10/31 03:10:52;;;;;;;32.60;26.50;;;11.60;99.90;;;;;;5063445;28;20238;-69
2021/10/31 03:13:21;;;;;;;32.47;27.70;;;11.70;99.90;;;;;;5062665;28;20800;-69
2021/10/31 03:15:49;;;;;;;32.53;25.67;;;11.60;99.90;;;;;;5067651;28;20236;-69
2021/10/31 03:18:17;;;;;;;33.70;26.13;;;11.50;99.90;;;;;;5067556;28;20351;-69
2021/10/31 03:20:46;;;;;;;29.77;26.27;;;11.50;99.90;;;;;;5062568;28;20249;-69
2021/10/31 03:23:14;;;;;;;34.30;29.27;;;11.40;99.90;;;;;;5067244;28;20396;-70
2021/10/31 03:25:42;;;;;;;31.33;27.50;;;11.30;99.90;;;;;;5067767;28;20228;-68
2021/10/31 03:28:12;;;;;;;30.43;26.00;;;11.30;99.90;;;;;;5064554;28;20424;-69
2021/10/31 03:30:40;;;;;;;32.73;28.03;;;11.40;99.90;;;;;;5066367;28;20769;-69
2021/10/31 03:33:09;;;;;;;34.90;27.40;;;11.30;99.90;;;;;;5060265;28;20228;-69
2021/10/31 03:35:38;;;;;;;33.50;28.13;;;11.40;99.90;;;;;;5058329;28;20466;-69
2021/10/31 03:38:06;;;;;;;33.27;28.47;;;11.30;99.90;;;;;;5065692;28;20232;-69
2021/10/31 03:40:34;;;;;;;34.23;29.03;;;11.30;99.90;;;;;;5062363;28;20248;-69
2021/10/31 03:43:03;;;;;;;33.53;28.47;;;11.40;99.90;;;;;;5059634;28;20752;-71
2021/10/31 03:45:32;;;;;;;31.30;27.37;;;11.30;99.90;;;;;;5065753;28;20313;-69
2021/10/31 03:48:03;;;;;;;34.80;29.63;;;11.30;99.90;;;;;;5065425;28;20237;-69
2021/10/31 03:50:32;;;;;;;34.83;29.33;;;11.40;99.90;;;;;;5064009;28;20322;-70
2021/10/31 03:53:00;;;;;;;34.90;30.30;;;11.30;99.90;;;;;;5066461;28;20617;-69
2021/10/31 03:55:29;;;;;;;35.83;29.63;;;11.30;99.90;;;;;;5064276;28;20263;-68
2021/10/31 03:57:58;;;;;;;34.43;28.60;;;11.30;99.90;;;;;;5065734;28;20650;-70
2021/10/31 04:00:26;;;;;;;33.60;28.70;;;11.30;99.90;;;;;;5064677;28;20220;-69
2021/10/31 04:02:56;;;;;;;33.13;27.93;;;11.30;99.90;;;;;;5066029;28;20232;-68
2021/10/31 04:05:24;;;;;;;31.60;28.00;;;11.30;99.90;;;;;;5067097;28;20239;-69
2021/10/31 04:07:53;;;;;;;35.43;27.53;;;11.30;99.90;;;;;;5066500;28;20233;-69
2021/10/31 04:10:21;;;;;;;34.77;28.83;;;11.50;99.90;;;;;;5066503;28;20227;-70
2021/10/31 04:12:50;;;;;;;33.60;28.43;;;11.30;99.90;;;;;;5066157;28;20603;-69
2021/10/31 04:15:20;;;;;;;35.53;28.63;;;11.30;99.90;;;;;;5066614;28;20320;-70
2021/10/31 04:17:48;;;;;;;34.23;29.43;;;11.30;99.90;;;;;;5066232;28;20250;-69
2021/10/31 04:20:18;;;;;;;33.27;28.37;;;11.20;99.90;;;;;;5065690;28;20324;-69
2021/10/31 04:22:47;;;;;;;32.43;27.87;;;11.10;99.90;;;;;;5063138;28;20243;-69
2021/10/31 04:25:16;;;;;;;33.00;28.53;;;11.10;99.90;;;;;;5063796;28;20238;-69
2021/10/31 04:27:46;;;;;;;31.30;27.43;;;11.10;99.90;;;;;;5066394;28;20264;-69
2021/10/31 04:30:14;;;;;;;33.30;28.07;;;11.10;99.90;;;;;;5066188;28;20231;-69
2021/10/31 04:32:42;;;;;;;31.23;27.33;;;11.00;99.90;;;;;;5063259;28;20233;-69
2021/10/31 04:35:11;;;;;;;31.60;28.13;;;11.00;99.90;;;;;;5066169;28;20343;-69
2021/10/31 04:37:43;;;;;;;32.23;27.67;;;11.00;99.90;;;;;;5066213;28;20223;-69
2021/10/31 04:40:15;;;;;;;31.73;28.07;;;10.90;99.90;;;;;;5066222;28;20263;-69
2021/10/31 04:42:43;;;;;;;31.23;27.47;;;10.90;99.90;;;;;;5065844;28;20239;-69
2021/10/31 04:45:11;;;;;;;30.60;26.97;;;10.90;99.90;;;;;;5065981;28;20318;-69
2021/10/31 04:47:40;;;;;;;31.33;27.63;;;10.90;99.90;;;;;;5066034;28;20244;-69
2021/10/31 04:50:09;;;;;;;33.03;28.77;;;10.80;99.90;;;;;;5066053;28;20789;-69
2021/10/31 04:52:43;;;;;;;32.93;28.43;;;10.80;99.90;;;;;;5065530;28;20233;-68
2021/10/31 04:55:13;;;;;;;34.43;27.80;;;10.80;99.90;;;;;;5066398;28;20236;-69
2021/10/31 04:57:41;;;;;;;32.27;27.40;;;10.80;99.90;;;;;;5066310;28;20238;-69
2021/10/31 05:00:10;;;;;;;33.40;27.93;;;10.80;99.90;;;;;;5065344;28;20246;-70
2021/10/31 05:02:38;;;;;;;31.90;27.13;;;10.80;99.90;;;;;;5057879;28;20321;-69
2021/10/31 05:05:07;;;;;;;35.83;29.80;;;10.80;99.90;;;;;;5063512;28;20269;-69
2021/10/31 05:07:35;;;;;;;33.27;27.57;;;10.70;99.90;;;;;;5057378;28;20258;-68
2021/10/31 05:10:09;;;;;;;32.87;27.40;;;10.80;99.90;;;;;;5067518;28;20237;-69
2021/10/31 05:12:37;;;;;;;33.13;28.17;;;10.80;99.90;;;;;;5063071;28;20608;-69
2021/10/31 05:15:07;;;;;;;35.30;29.70;;;10.80;99.90;;;;;;5069962;28;20568;-70
2021/10/31 05:17:35;;;;;;;36.77;29.70;;;10.80;99.90;;;;;;5069543;28;20224;-69
2021/10/31 05:20:04;;;;;;;34.97;29.13;;;10.80;99.90;;;;;;5069604;28;20279;-70
2021/10/31 05:22:32;;;;;;;34.53;29.20;;;10.80;99.90;;;;;;5067744;28;20240;-70
2021/10/31 05:25:01;;;;;;;34.13;29.33;;;10.80;99.90;;;;;;5069495;28;20244;-69
2021/10/31 05:27:30;;;;;;;34.40;29.60;;;10.80;99.90;;;;;;5061745;28;20224;-69
2021/10/31 05:29:58;;;;;;;35.37;29.00;;;10.80;99.90;;;;;;5069753;28;20243;-69
2021/10/31 05:32:32;;;;;;;35.40;29.97;;;10.80;99.90;;;;;;5068513;28;20237;-69
2021/10/31 05:35:00;;;;;;;35.73;30.07;;;10.70;99.90;;;;;;5070017;28;20267;-69
2021/10/31 05:37:34;;;;;;;35.10;30.03;;;10.70;99.90;;;;;;5067672;28;20230;-69
2021/10/31 05:40:03;;;;;;;35.20;29.53;;;10.70;99.90;;;;;;5068825;28;20233;-69
2021/10/31 05:42:32;;;;;;;34.77;29.07;;;10.70;99.90;;;;;;5069330;28;20228;-69
2021/10/31 05:45:00;;;;;;;35.97;29.40;;;10.60;99.90;;;;;;5069873;28;20271;-68
2021/10/31 05:47:30;;;;;;;33.90;29.50;;;10.60;99.90;;;;;;5069285;28;20235;-68
2021/10/31 05:49:58;;;;;;;34.27;30.13;;;10.70;99.90;;;;;;5067878;28;20323;-69
2021/10/31 05:52:26;;;;;;;33.57;29.67;;;10.70;99.90;;;;;;5069076;28;20328;-69
2021/10/31 05:54:54;;;;;;;35.83;29.50;;;10.60;99.90;;;;;;5069645;28;20231;-68
2021/10/31 05:57:22;;;;;;;32.77;27.53;;;10.60;99.90;;;;;;5069452;28;20271;-68
2021/10/31 05:59:52;;;;;;;32.93;28.50;;;10.60;99.90;;;;;;5064036;28;20229;-69
2021/10/31 06:02:20;;;;;;;32.53;28.97;;;10.50;99.90;;;;;;5068863;28;20318;-69
2021/10/31 06:04:49;;;;;;;32.80;29.03;;;10.60;99.90;;;;;;5065058;28;20432;-69
2021/10/31 06:07:19;;;;;;;33.93;28.53;;;10.60;99.90;;;;;;5069071;28;20262;-69
2021/10/31 06:09:47;;;;;;;33.23;28.53;;;10.50;99.90;;;;;;5068472;28;20232;-68
2021/10/31 06:12:15;;;;;;;33.30;28.17;;;10.50;99.90;;;;;;5067964;28;20746;-69
2021/10/31 06:14:44;;;;;;;32.67;28.47;;;10.50;99.90;;;;;;5067431;28;20232;-69
2021/10/31 06:17:13;;;;;;;35.63;29.63;;;10.60;99.90;;;;;;5067502;28;20650;-69
2021/10/31 06:19:42;;;;;;;169.40;62.53;;;10.50;99.90;;;;;;5066368;28;20241;-68
2021/10/31 06:22:10;;;;;;;62.87;35.60;;;10.60;99.90;;;;;;5066218;28;20319;-69
2021/10/31 06:24:38;;;;;;;46.90;31.73;;;10.60;99.90;;;;;;5067152;28;20324;-69
2021/10/31 06:27:06;;;;;;;39.70;31.30;;;10.50;99.90;;;;;;5067152;28;20227;-69
2021/10/31 06:29:34;;;;;;;37.50;30.93;;;10.50;99.90;;;;;;5066240;28;20271;-70
2021/10/31 06:32:03;;;;;;;38.13;30.40;;;10.50;99.90;;;;;;5065353;28;20231;-69
2021/10/31 06:34:32;;;;;;;33.73;29.20;;;10.50;99.90;;;;;;5066194;28;20239;-69
2021/10/31 06:37:00;;;;;;;39.90;30.57;;;10.40;99.90;;;;;;5067193;28;20316;-70
2021/10/31 06:39:28;;;;;;;44.60;31.33;;;10.50;99.90;;;;;;5064724;28;20233;-69
2021/10/31 06:41:56;;;;;;;34.00;29.77;;;10.50;99.90;;;;;;5066799;28;20239;-70
2021/10/31 06:44:25;;;;;;;35.53;28.60;;;10.50;99.90;;;;;;5067314;28;20589;-69
2021/10/31 06:46:54;;;;;;;33.93;28.30;;;10.50;99.90;;;;;;5065962;28;20260;-69
2021/10/31 06:49:22;;;;;;;35.00;29.50;;;10.40;99.90;;;;;;5061860;28;20239;-69
2021/10/31 06:51:51;;;;;;;36.20;30.37;;;10.50;99.90;;;;;;5066242;28;20394;-69
2021/10/31 06:54:19;;;;;;;34.43;28.97;;;10.50;99.90;;;;;;5070599;28;20232;-69
2021/10/31 06:56:47;;;;;;;34.07;27.73;;;10.50;99.90;;;;;;5065995;28;20807;-69
2021/10/31 06:59:16;;;;;;;36.70;28.43;;;10.50;99.90;;;;;;5071064;28;20243;-69
2021/10/31 07:01:46;;;;;;;32.40;28.33;;;10.50;99.90;;;;;;5065692;28;20235;-70
2021/10/31 07:04:14;;;;;;;31.03;27.03;;;10.50;99.90;;;;;;5060021;28;20240;-69
2021/10/31 07:06:42;;;;;;;29.83;25.73;;;10.50;99.90;;;;;;5058821;28;20469;-68
2021/10/31 07:09:12;;;;;;;31.07;27.47;;;10.50;99.90;;;;;;5063777;28;20784;-68
2021/10/31 07:11:40;;;;;;;33.00;27.77;;;10.50;99.90;;;;;;5058655;28;20255;-68
2021/10/31 07:14:10;;;;;;;35.40;27.37;;;10.50;99.90;;;;;;5047401;28;20600;-67
2021/10/31 07:16:40;;;;;;;34.20;27.97;;;10.60;99.90;;;;;;5046306;28;20260;-68
2021/10/31 07:19:10;;;;;;;32.53;27.37;;;10.60;99.90;;;;;;5023718;28;20715;-68
2021/10/31 07:21:40;;;;;;;30.37;26.27;;;10.60;99.90;;;;;;5026853;28;20703;-67
2021/10/31 07:24:08;;;;;;;31.70;26.60;;;10.60;99.90;;;;;;5038054;28;20237;-68
2021/10/31 07:26:38;;;;;;;29.97;26.70;;;10.60;99.90;;;;;;5048364;28;20236;-68
2021/10/31 07:29:08;;;;;;;31.43;27.00;;;10.70;99.90;;;;;;5049268;28;20239;-68
2021/10/31 07:31:40;;;;;;;32.07;26.23;;;10.70;99.90;;;;;;5049688;28;20247;-68
2021/10/31 07:34:11;;;;;;;30.23;26.20;;;10.60;99.90;;;;;;5049057;28;20268;-68
2021/10/31 07:36:41;;;;;;;32.80;27.40;;;10.60;99.90;;;;;;5046880;28;20241;-69
2021/10/31 07:39:10;;;;;;;31.60;26.50;;;10.60;99.90;;;;;;5049334;28;20242;-68
2021/10/31 07:41:40;;;;;;;29.53;25.53;;;10.60;99.90;;;;;;5049580;28;20252;-68
2021/10/31 07:44:09;;;;;;;31.97;26.97;;;10.50;99.90;;;;;;5044655;28;20714;-67
2021/10/31 07:46:37;;;;;;;34.47;27.23;;;10.60;99.90;;;;;;5046046;28;20860;-68
2021/10/31 07:49:10;;;;;;;31.43;26.83;;;10.70;99.90;;;;;;5049137;28;20244;-67
2021/10/31 07:51:39;;;;;;;32.73;26.33;;;10.70;99.90;;;;;;5049025;28;20269;-68
2021/10/31 07:54:07;;;;;;;32.97;27.80;;;10.90;99.90;;;;;;5048952;28;20240;-68
2021/10/31 07:56:36;;;;;;;34.77;28.90;;;11.00;99.90;;;;;;5046410;28;21530;-68
2021/10/31 07:59:06;;;;;;;31.93;26.83;;;11.20;99.90;;;;;;5048718;28;20236;-68
2021/10/31 08:01:34;;;;;;;34.40;26.70;;;11.10;99.90;;;;;;5049404;28;20717;-68
2021/10/31 08:04:02;;;;;;;34.83;27.17;;;11.30;99.90;;;;;;5048604;28;20937;-68
2021/10/31 08:06:30;;;;;;;32.97;27.23;;;11.40;99.90;;;;;;5045772;28;20241;-67
2021/10/31 08:08:58;;;;;;;34.10;28.33;;;11.50;99.90;;;;;;5048531;28;20333;-68
2021/10/31 08:11:26;;;;;;;33.20;27.30;;;11.40;99.90;;;;;;5048600;28;20246;-67
2021/10/31 08:13:55;;;;;;;30.73;26.10;;;11.40;99.90;;;;;;5049064;28;20330;-68
2021/10/31 08:16:25;;;;;;;30.17;26.70;;;11.40;99.90;;;;;;5047502;28;20236;-68
2021/10/31 08:18:53;;;;;;;32.40;27.30;;;11.60;99.90;;;;;;5047872;28;20243;-67
2021/10/31 08:21:22;;;;;;;31.07;26.67;;;11.60;99.90;;;;;;5048668;28;20569;-68
2021/10/31 08:23:50;;;;;;;34.07;28.10;;;11.70;99.90;;;;;;5047559;28;20818;-68
2021/10/31 08:26:18;;;;;;;33.43;27.57;;;11.80;99.90;;;;;;5047458;28;20236;-67
2021/10/31 08:28:48;;;;;;;31.47;26.63;;;11.90;99.90;;;;;;5047360;28;20300;-69
2021/10/31 08:31:23;;;;;;;33.00;27.40;;;11.90;99.90;;;;;;5048967;28;21139;-68
2021/10/31 08:33:57;;;;;;;32.07;27.47;;;12.00;99.90;;;;;;5048433;28;20301;-68
2021/10/31 08:36:26;;;;;;;32.33;27.73;;;12.10;99.90;;;;;;5046012;28;20249;-67
2021/10/31 08:38:55;;;;;;;33.03;27.53;;;12.20;99.90;;;;;;5048162;28;20259;-69
2021/10/31 08:41:24;;;;;;;32.80;27.10;;;12.30;99.90;;;;;;5048843;28;20247;-68
2021/10/31 08:43:54;;;;;;;31.03;25.87;;;12.50;99.90;;;;;;5047892;28;20245;-68
2021/10/31 08:46:22;;;;;;;30.63;26.77;;;12.60;99.90;;;;;;5045847;28;20705;-68
2021/10/31 08:48:51;;;;;;;31.43;27.23;;;12.80;99.90;;;;;;5047445;28;20237;-68
2021/10/31 08:51:23;;;;;;;30.13;26.30;;;13.00;99.90;;;;;;5048112;28;20794;-67
2021/10/31 08:53:52;;;;;;;31.03;26.77;;;13.00;99.90;;;;;;5048476;28;20246;-67
2021/10/31 08:56:21;;;;;;;29.33;24.97;;;13.20;99.90;;;;;;5046207;28;20238;-68
2021/10/31 08:58:49;;;;;;;26.20;23.40;;;13.30;99.90;;;;;;5047690;28;20594;-67
2021/10/31 09:01:18;;;;;;;26.97;24.17;;;13.20;99.90;;;;;;5048439;28;20311;-67
2021/10/31 09:03:49;;;;;;;26.30;23.23;;;13.10;99.90;;;;;;5046986;28;20245;-67
2021/10/31 09:06:18;;;;;;;26.40;23.57;;;13.10;99.90;;;;;;5046053;28;20240;-67
2021/10/31 09:08:47;;;;;;;25.77;22.67;;;13.30;99.90;;;;;;5046934;28;20238;-67
2021/10/31 09:11:15;;;;;;;26.27;23.47;;;13.40;99.90;;;;;;5047965;28;20246;-67
2021/10/31 09:13:43;;;;;;;27.20;22.73;;;13.50;99.90;;;;;;5047560;28;21603;-67
2021/10/31 09:16:12;;;;;;;24.83;22.17;;;13.40;99.90;;;;;;5046809;28;20593;-67
2021/10/31 09:18:40;;;;;;;24.70;22.30;;;13.50;99.90;;;;;;5045535;28;20242;-67
2021/10/31 09:21:08;;;;;;;25.00;21.47;;;13.50;99.90;;;;;;5048189;28;20227;-67
2021/10/31 09:23:38;;;;;;;25.47;22.70;;;13.60;99.90;;;;;;5047904;28;20348;-67
2021/10/31 09:26:07;;;;;;;23.87;21.43;;;13.50;99.90;;;;;;5048826;28;20234;-67
2021/10/31 09:28:35;;;;;;;23.97;21.53;;;13.50;99.90;;;;;;5051900;28;20252;-67
2021/10/31 09:31:03;;;;;;;24.30;21.67;;;13.60;99.90;;;;;;5049343;28;20244;-67
2021/10/31 09:33:33;;;;;;;23.70;21.37;;;13.80;99.90;;;;;;5068554;28;20230;-67
2021/10/31 09:36:02;;;;;;;23.33;20.77;;;13.80;99.90;;;;;;5070651;28;20258;-67
2021/10/31 09:38:31;;;;;;;24.40;21.80;;;13.80;99.90;;;;;;5072095;28;20944;-67
2021/10/31 09:41:01;;;;;;;23.20;20.80;;;13.90;99.90;;;;;;5064616;28;20766;-67
2021/10/31 09:43:37;;;;;;;23.43;21.03;;;13.80;99.90;;;;;;5064569;28;20304;-67
2021/10/31 09:46:06;;;;;;;24.63;21.37;;;13.90;99.90;;;;;;5065949;28;20242;-67
2021/10/31 09:48:35;;;;;;;22.60;20.30;;;13.90;99.90;;;;;;5067799;28;20246;-67
2021/10/31 09:51:04;;;;;;;23.63;21.00;;;13.90;99.90;;;;;;5063912;28;20721;-67
2021/10/31 09:53:33;;;;;;;22.17;19.87;;;14.00;99.90;;;;;;5064096;28;20907;-67
2021/10/31 09:56:02;;;;;;;21.97;19.60;;;13.90;99.90;;;;;;5071423;28;20234;-67
2021/10/31 09:58:35;;;;;;;22.70;20.40;;;14.00;99.90;;;;;;5073585;28;20302;-67
2021/10/31 10:01:13;;;;;;;22.73;20.33;;;14.00;99.90;;;;;;5078304;28;20265;-67
2021/10/31 10:03:56;;;;;;;22.23;19.93;;;13.90;99.90;;;;;;5067624;28;20270;-67
2021/10/31 10:06:28;;;;;;;23.33;20.93;;;13.90;99.90;;;;;;5068036;28;20296;-67
2021/10/31 10:08:59;;;;;;;24.33;20.20;;;13.80;99.90;;;;;;5067587;28;20292;-67
2021/10/31 10:11:28;;;;;;;22.50;20.07;;;13.80;99.90;;;;;;5060627;28;20287;-67
2021/10/31 10:14:12;;;;;;;21.97;19.60;;;13.80;99.90;;;;;;5067366;28;20742;-67
2021/10/31 10:16:41;;;;;;;20.37;18.17;;;14.00;99.90;;;;;;5066476;28;20234;-67
2021/10/31 10:19:21;;;;;;;21.10;18.83;;;14.10;99.90;;;;;;5074072;28;20241;-67
2021/10/31 10:22:00;;;;;;;21.60;17.50;;;14.10;99.90;;;;;;5069016;28;20295;-67
2021/10/31 10:24:30;;;;;;;19.83;17.83;;;14.10;99.90;;;;;;5075776;28;20273;-67
2021/10/31 10:27:01;;;;;;;19.37;17.27;;;14.20;99.90;;;;;;5076050;28;20226;-67
2021/10/31 10:29:32;;;;;;;19.63;17.57;;;14.30;99.90;;;;;;5074700;28;20231;-67
2021/10/31 10:32:03;;;;;;;19.60;16.17;;;14.40;99.90;;;;;;5062594;28;20332;-67
2021/10/31 10:34:37;;;;;;;21.33;15.57;;;14.60;99.90;;;;;;5063889;28;20226;-67
2021/10/31 10:37:09;;;;;;;20.73;15.70;;;14.80;99.90;;;;;;5056721;28;20288;-67
2021/10/31 10:39:38;;;;;;;16.00;13.93;;;15.00;99.90;;;;;;5057141;28;20263;-67
2021/10/31 10:42:07;;;;;;;16.13;13.67;;;15.10;99.90;;;;;;5058774;28;20235;-67
2021/10/31 10:44:40;;;;;;;20.23;13.27;;;15.20;99.90;;;;;;5068229;28;20317;-67
2021/10/31 10:47:12;;;;;;;14.77;11.30;;;15.20;99.90;;;;;;5063010;28;20695;-67
2021/10/31 10:49:43;;;;;;;14.20;12.07;;;15.30;99.90;;;;;;5067934;28;20792;-67
2021/10/31 10:52:22;;;;;;;13.60;12.03;;;15.20;99.90;;;;;;5067362;28;20235;-67
2021/10/31 10:55:11;;;;;;;15.73;11.90;;;15.10;99.90;;;;;;5074098;28;20253;-67
2021/10/31 10:57:42;;;;;;;13.27;11.70;;;15.10;99.90;;;;;;5069572;28;20258;-67
2021/10/31 11:00:17;;;;;;;13.80;11.80;;;15.20;99.90;;;;;;5063782;28;20266;-67
2021/10/31 11:02:47;;;;;;;14.50;11.33;;;15.20;99.90;;;;;;5068511;28;20306;-67
2021/10/31 11:05:19;;;;;;;14.03;10.53;;;15.10;99.90;;;;;;5065405;28;20269;-67
2021/10/31 11:07:50;;;;;;;12.07;9.93;;;15.20;99.90;;;;;;5071226;28;20291;-67
2021/10/31 11:10:21;;;;;;;14.07;9.07;;;15.20;99.90;;;;;;5067449;28;20329;-67
2021/10/31 11:12:51;;;;;;;12.13;9.30;;;15.20;99.90;;;;;;5054483;28;20242;-67
2021/10/31 11:15:22;;;;;;;11.77;8.90;;;15.30;99.90;;;;;;5070721;28;20264;-67
2021/10/31 11:17:53;;;;;;;11.87;9.07;;;15.50;99.90;;;;;;5072296;28;20322;-67
2021/10/31 11:20:24;;;;;;;11.63;8.20;;;15.60;99.90;;;;;;5070837;28;20235;-67
2021/10/31 11:22:54;;;;;;;10.20;8.77;;;15.70;99.90;;;;;;5074670;28;20274;-67
2021/10/31 11:25:24;;;;;;;11.00;8.50;;;15.80;99.90;;;;;;5073443;28;20240;-67
2021/10/31 11:27:54;;;;;;;9.87;8.70;;;15.90;99.90;;;;;;5072043;28;20241;-67
2021/10/31 11:30:25;;;;;;;12.73;7.97;;;16.00;99.90;;;;;;5070590;28;20690;-67
2021/10/31 11:32:55;;;;;;;11.30;7.73;;;16.00;99.90;;;;;;5070631;28;20272;-67
2021/10/31 11:35:23;;;;;;;10.60;8.20;;;15.90;99.90;;;;;;5065310;28;20235;-67
2021/10/31 11:38:00;;;;;;;11.50;8.37;;;15.90;99.90;;;;;;5066347;28;20250;-67
2021/10/31 11:40:31;;;;;;;9.23;8.23;;;15.90;99.90;;;;;;5069557;28;20257;-67
2021/10/31 11:43:00;;;;;;;10.77;8.27;;;15.90;99.90;;;;;;5075121;28;20254;-67
2021/10/31 11:45:35;;;;;;;10.33;9.13;;;15.80;99.90;;;;;;5068541;28;20238;-67
2021/10/31 11:48:12;;;;;;;10.23;8.43;;;15.70;99.90;;;;;;5049668;28;20682;-67
2021/10/31 11:50:42;;;;;;;12.27;8.63;;;15.70;99.90;;;;;;5060811;28;20234;-67
2021/10/31 11:53:17;;;;;;;11.03;9.77;;;15.60;99.90;;;;;;5067124;28;20235;-67
2021/10/31 11:55:57;;;;;;;10.60;9.53;;;15.60;99.90;;;;;;5055026;28;20266;-67
2021/10/31 11:58:59;;;;;;;11.37;10.10;;;15.60;99.90;;;;;;5061993;28;20238;-67
2021/10/31 12:01:37;;;;;;;11.10;10.00;;;15.70;99.90;;;;;;5061528;28;20333;-67
2021/10/31 12:04:08;;;;;;;11.47;10.37;;;15.70;99.90;;;;;;5062599;28;20235;-67
2021/10/31 12:06:51;;;;;;;10.00;9.10;;;15.80;99.90;;;;;;5061596;28;20723;-67
2021/10/31 12:09:32;;;;;;;10.77;8.60;;;15.80;99.90;;;;;;5061819;28;20241;-68
2021/10/31 12:12:24;;;;;;;9.73;8.70;;;15.80;99.90;;;;;;5058610;28;20222;-67
2021/10/31 12:14:58;;;;;;;9.93;8.10;;;15.80;99.90;;;;;;5061074;28;20918;-68
2021/10/31 12:18:02;;;;;;;9.20;8.30;;;15.80;99.90;;;;;;5060029;28;20241;-68
2021/10/31 12:20:51;;;;;;;10.63;7.17;;;15.90;99.90;;;;;;5060120;28;20706;-68
2021/10/31 12:23:26;;;;;;;8.20;7.43;;;15.90;99.90;;;;;;5059966;28;20318;-68
2021/10/31 12:25:56;;;;;;;9.60;7.63;;;16.00;99.90;;;;;;5060893;28;20231;-68
2021/10/31 12:28:39;;;;;;;8.73;6.70;;;15.90;99.90;;;;;;5062654;28;20606;-68
2021/10/31 12:31:28;;;;;;;7.50;6.70;;;15.80;99.90;;;;;;5061423;28;20278;-67
2021/10/31 12:34:09;;;;;;;7.43;6.60;;;15.90;99.90;;;;;;5067115;28;20232;-67
2021/10/31 12:36:40;;;;;;;7.83;6.53;;;15.80;99.90;;;;;;5075574;28;20235;-67
2021/10/31 12:39:49;;;;;;;7.33;6.63;;;15.90;99.90;;;;;;5070538;28;20234;-67
2021/10/31 12:42:19;;;;;;;6.87;6.13;;;15.70;99.90;;;;;;5060669;28;20702;-67
2021/10/31 12:44:51;;;;;;;6.20;5.60;;;15.70;99.90;;;;;;5061750;28;20235;-67
2021/10/31 12:47:24;;;;;;;6.43;5.80;;;15.80;99.90;;;;;;5064744;28;20329;-67